Time;durP1;ratioP1;P1;durP2;ratioP2;P2;SDS_P1;SDS_P2;PMS_P1;PMS_P2;Temp;Humidity;BMP_temperature;BMP_pressure;BME280_temperature;BME280_humidity;BME280_pressure;Samples;Min_cycle;Max_cycle;Signal;HPM_P1;HPM_P2
2023/10/21 00:01:11;;;;;;;5.93;0.80;;;12.20;99.90;;;;;;5055089;28;20529;-68
2023/10/21 00:03:39;;;;;;;6.80;1.00;;;12.20;99.90;;;;;;5061460;28;20457;-68
2023/10/21 00:06:07;;;;;;;6.73;0.97;;;12.30;99.90;;;;;;5062650;28;20478;-67
2023/10/21 00:08:37;;;;;;;6.27;1.10;;;12.40;99.90;;;;;;5062172;28;20500;-69
2023/10/21 00:11:08;;;;;;;6.50;1.00;;;12.50;99.90;;;;;;5057112;28;20466;-70
2023/10/21 00:13:36;;;;;;;7.00;0.90;;;12.60;99.90;;;;;;5060570;28;20450;-68
2023/10/21 00:16:05;;;;;;;6.27;0.83;;;12.60;99.90;;;;;;5061853;28;20502;-70
2023/10/21 00:18:32;;;;;;;6.33;1.10;;;12.70;99.90;;;;;;5068500;28;20452;-68
2023/10/21 00:21:01;;;;;;;7.73;1.00;;;12.80;99.90;;;;;;5063948;28;20482;-69
2023/10/21 00:23:30;;;;;;;7.10;0.80;;;12.90;99.90;;;;;;5073177;28;20458;-70
2023/10/21 00:26:03;;;;;;;6.97;1.37;;;12.90;99.90;;;;;;5068695;28;20531;-69
2023/10/21 00:28:30;;;;;;;6.13;1.10;;;12.90;99.90;;;;;;5063167;28;20828;-70
2023/10/21 00:31:01;;;;;;;6.00;0.80;;;13.00;99.90;;;;;;5067295;28;20488;-68
2023/10/21 00:33:29;;;;;;;6.90;1.10;;;13.10;99.90;;;;;;5062393;28;20451;-68
2023/10/21 00:35:57;;;;;;;6.90;1.20;;;13.20;99.90;;;;;;5064999;28;21014;-70
2023/10/21 00:38:25;;;;;;;6.50;0.97;;;13.30;99.90;;;;;;5065430;28;20458;-70
2023/10/21 00:40:54;;;;;;;6.40;1.00;;;13.40;99.90;;;;;;5056965;28;20487;-70
2023/10/21 00:43:40;;;;;;;7.17;0.90;;;13.40;99.90;;;;;;5061441;28;20456;-69
2023/10/21 00:46:12;;;;;;;6.97;1.30;;;13.30;99.90;;;;;;5056724;28;20525;-71
2023/10/21 00:48:41;;;;;;;9.47;1.50;;;13.30;99.90;;;;;;5061111;28;20469;-69
2023/10/21 00:51:10;;;;;;;6.20;0.87;;;13.30;99.90;;;;;;5059547;28;20538;-69
2023/10/21 00:53:39;;;;;;;6.40;1.30;;;13.20;99.90;;;;;;5062413;28;20996;-71
2023/10/21 00:56:07;;;;;;;6.03;0.90;;;13.20;99.90;;;;;;5059424;28;21014;-67
2023/10/21 00:58:36;;;;;;;6.63;0.97;;;13.20;99.90;;;;;;5058457;28;20975;-69
2023/10/21 01:01:07;;;;;;;6.40;0.90;;;13.20;99.90;;;;;;5056775;28;20548;-68
2023/10/21 01:03:36;;;;;;;6.60;0.80;;;13.10;99.90;;;;;;5060577;28;20455;-70
2023/10/21 01:06:05;;;;;;;6.43;0.90;;;13.00;99.90;;;;;;5065128;28;21004;-68
2023/10/21 01:08:41;;;;;;;6.17;1.07;;;13.10;99.90;;;;;;5060167;28;20479;-67
2023/10/21 01:11:09;;;;;;;5.70;0.70;;;13.10;99.90;;;;;;5059618;28;20948;-69
2023/10/21 01:13:37;;;;;;;6.30;0.80;;;13.20;99.90;;;;;;5059891;28;21039;-68
2023/10/21 01:16:07;;;;;;;9.13;1.10;;;13.20;99.90;;;;;;5060361;28;20471;-70
2023/10/21 01:18:35;;;;;;;6.10;0.80;;;13.20;99.90;;;;;;5058462;28;20828;-71
2023/10/21 01:21:04;;;;;;;6.57;0.80;;;13.40;99.90;;;;;;5056844;28;20543;-72
2023/10/21 01:23:34;;;;;;;6.60;0.90;;;13.40;99.90;;;;;;5058715;28;20459;-70
2023/10/21 01:26:02;;;;;;;6.70;1.10;;;13.30;99.90;;;;;;5060016;28;20515;-71
2023/10/21 01:28:30;;;;;;;6.50;1.10;;;13.30;99.90;;;;;;5059936;28;20488;-67
2023/10/21 01:30:58;;;;;;;7.27;1.43;;;13.20;99.90;;;;;;5061058;28;20447;-69
2023/10/21 01:33:26;;;;;;;6.50;1.00;;;13.10;99.90;;;;;;5059889;28;20836;-71
2023/10/21 01:35:54;;;;;;;7.70;1.30;;;13.10;99.90;;;;;;5056886;28;20484;-67
2023/10/21 01:38:24;;;;;;;7.67;1.43;;;13.00;99.90;;;;;;5064244;28;20530;-69
2023/10/21 01:40:53;;;;;;;6.53;0.80;;;12.90;99.90;;;;;;5060827;28;20482;-69
2023/10/21 01:43:21;;;;;;;6.80;1.30;;;12.80;99.90;;;;;;5060183;28;21022;-67
2023/10/21 01:45:49;;;;;;;6.10;0.87;;;12.90;99.90;;;;;;5057168;28;20856;-67
2023/10/21 01:48:17;;;;;;;7.03;1.00;;;12.90;99.90;;;;;;5062351;28;20483;-67
2023/10/21 01:50:45;;;;;;;7.23;1.00;;;12.90;99.90;;;;;;5056155;28;20473;-67
2023/10/21 01:53:13;;;;;;;7.07;0.80;;;13.10;99.90;;;;;;5061567;28;20478;-67
2023/10/21 01:55:42;;;;;;;6.07;0.90;;;13.30;99.90;;;;;;5059950;28;20478;-68
2023/10/21 01:58:11;;;;;;;6.20;0.80;;;13.30;99.90;;;;;;5061084;28;20448;-67
2023/10/21 02:00:39;;;;;;;5.80;0.77;;;13.30;99.90;;;;;;5056680;28;21001;-67
2023/10/21 02:03:07;;;;;;;5.90;0.70;;;13.40;99.90;;;;;;5052542;28;21127;-69
2023/10/21 02:05:38;;;;;;;5.97;0.90;;;13.40;99.90;;;;;;5060298;28;20479;-69
2023/10/21 02:08:06;;;;;;;5.80;0.60;;;13.40;99.90;;;;;;5060317;28;20956;-65
2023/10/21 02:10:35;;;;;;;5.80;0.43;;;13.50;99.90;;;;;;5064110;28;20470;-69
2023/10/21 02:13:03;;;;;;;5.90;0.60;;;13.40;99.90;;;;;;5058610;28;20492;-67
2023/10/21 02:15:36;;;;;;;7.23;0.77;;;13.60;99.90;;;;;;5057467;28;20479;-69
2023/10/21 02:18:05;;;;;;;5.60;0.50;;;13.60;99.90;;;;;;5061623;28;20447;-68
2023/10/21 02:20:37;;;;;;;5.60;0.50;;;13.50;99.90;;;;;;5058513;28;22283;-70
2023/10/21 02:23:05;;;;;;;5.63;0.60;;;13.50;99.90;;;;;;5058120;28;20542;-70
2023/10/21 02:25:34;;;;;;;5.60;0.57;;;13.60;99.90;;;;;;5055011;28;20516;-71
2023/10/21 02:28:02;;;;;;;6.23;0.50;;;13.60;99.90;;;;;;5059465;28;20452;-69
2023/10/21 02:30:31;;;;;;;5.80;0.50;;;13.50;99.90;;;;;;5057282;28;20444;-67
2023/10/21 02:33:00;;;;;;;5.70;0.57;;;13.40;99.90;;;;;;5052956;28;20848;-70
2023/10/21 02:35:32;;;;;;;5.70;0.37;;;13.30;99.90;;;;;;5057788;28;20477;-65
2023/10/21 02:38:00;;;;;;;5.90;0.60;;;13.30;99.90;;;;;;5057751;28;20466;-66
2023/10/21 02:40:28;;;;;;;7.43;0.70;;;13.30;99.90;;;;;;5059749;28;20471;-69
2023/10/21 02:42:56;;;;;;;6.00;0.70;;;13.30;99.90;;;;;;5058419;28;20471;-66
2023/10/21 02:45:24;;;;;;;5.70;0.60;;;13.30;99.90;;;;;;5061365;28;20471;-68
2023/10/21 02:47:53;;;;;;;5.67;0.50;;;13.20;99.90;;;;;;5057772;28;20596;-68
2023/10/21 02:50:22;;;;;;;6.60;0.50;;;13.00;99.90;;;;;;5059657;28;20947;-70
2023/10/21 02:52:51;;;;;;;5.80;0.60;;;13.00;99.90;;;;;;5063334;28;20458;-71
2023/10/21 02:55:19;;;;;;;5.63;0.50;;;12.90;99.90;;;;;;5058334;28;20537;-69
2023/10/21 02:57:47;;;;;;;5.90;0.60;;;12.80;99.90;;;;;;5056888;28;20519;-68
2023/10/21 03:00:17;;;;;;;6.10;0.60;;;12.70;99.90;;;;;;5062152;28;20970;-68
2023/10/21 03:02:46;;;;;;;8.37;0.70;;;12.70;99.90;;;;;;5058353;28;20462;-69
2023/10/21 03:05:16;;;;;;;7.03;0.60;;;12.60;99.90;;;;;;5062469;28;20644;-71
2023/10/21 03:07:44;;;;;;;5.70;0.50;;;12.60;99.90;;;;;;5058043;28;20477;-70
2023/10/21 03:10:12;;;;;;;8.20;0.70;;;12.60;99.90;;;;;;5058604;28;20519;-72
2023/10/21 03:12:40;;;;;;;5.90;0.73;;;12.70;99.90;;;;;;5063323;28;20488;-70
2023/10/21 03:15:12;;;;;;;6.40;0.60;;;12.70;99.90;;;;;;5059316;28;22109;-67
2023/10/21 03:17:41;;;;;;;6.30;0.70;;;12.70;99.90;;;;;;5058801;28;20546;-68
2023/10/21 03:20:11;;;;;;;6.67;0.50;;;12.70;99.90;;;;;;5058726;28;20499;-68
2023/10/21 03:22:39;;;;;;;6.87;0.50;;;12.70;99.90;;;;;;5060742;28;20468;-68
2023/10/21 03:25:08;;;;;;;6.37;0.90;;;12.70;99.90;;;;;;5065854;28;20543;-67
2023/10/21 03:27:36;;;;;;;5.80;0.70;;;12.70;99.90;;;;;;5066262;28;20519;-69
2023/10/21 03:30:06;;;;;;;5.97;0.70;;;12.70;99.90;;;;;;5059793;28;20505;-68
2023/10/21 03:32:34;;;;;;;6.00;0.60;;;12.60;99.90;;;;;;5057687;28;20446;-68
2023/10/21 03:35:02;;;;;;;5.80;0.57;;;12.50;99.90;;;;;;5065435;28;20467;-68
2023/10/21 03:37:30;;;;;;;5.80;0.60;;;12.40;99.90;;;;;;5067584;28;20456;-71
2023/10/21 03:39:59;;;;;;;5.83;0.63;;;12.40;99.90;;;;;;5061037;28;20449;-67
2023/10/21 03:42:27;;;;;;;6.77;0.67;;;12.40;99.90;;;;;;5058605;28;20521;-68
2023/10/21 03:44:55;;;;;;;6.43;0.50;;;12.30;99.90;;;;;;5058833;28;20590;-68
2023/10/21 03:47:23;;;;;;;5.53;0.50;;;12.40;99.90;;;;;;5060804;28;20446;-70
2023/10/21 03:49:51;;;;;;;6.47;0.50;;;12.50;99.90;;;;;;5056911;28;21023;-70
2023/10/21 03:52:19;;;;;;;5.80;0.50;;;12.50;99.90;;;;;;5058306;28;20447;-69
2023/10/21 03:54:48;;;;;;;6.10;0.60;;;12.50;99.90;;;;;;5057680;28;20482;-69
2023/10/21 03:57:17;;;;;;;6.20;0.60;;;12.50;99.90;;;;;;5056930;28;20504;-71
2023/10/21 03:59:45;;;;;;;6.57;0.53;;;12.40;99.90;;;;;;5062718;28;21030;-70
2023/10/21 04:02:13;;;;;;;5.87;0.63;;;12.50;99.90;;;;;;5060588;28;20493;-70
2023/10/21 04:04:41;;;;;;;6.20;0.50;;;12.50;99.90;;;;;;5059022;28;20465;-69
2023/10/21 04:07:09;;;;;;;5.57;0.40;;;12.50;99.90;;;;;;5061245;28;20465;-68
2023/10/21 04:09:37;;;;;;;5.90;0.53;;;12.50;99.90;;;;;;5055605;28;21033;-69
2023/10/21 04:12:05;;;;;;;6.30;0.50;;;12.60;99.90;;;;;;5066795;28;20495;-69
2023/10/21 04:14:35;;;;;;;5.70;0.50;;;12.60;99.90;;;;;;5055260;28;20450;-68
2023/10/21 04:17:05;;;;;;;5.80;0.60;;;12.60;99.90;;;;;;5065136;28;21309;-70
2023/10/21 04:19:33;;;;;;;6.27;0.60;;;12.70;99.90;;;;;;5061552;28;20482;-67
2023/10/21 04:22:01;;;;;;;5.57;0.40;;;12.80;99.90;;;;;;5059410;28;21297;-66
2023/10/21 04:24:29;;;;;;;5.90;0.80;;;12.80;99.90;;;;;;5059837;28;20501;-68
2023/10/21 04:26:57;;;;;;;5.70;0.50;;;12.80;99.90;;;;;;5058199;28;20521;-68
2023/10/21 04:29:25;;;;;;;5.80;0.50;;;12.90;99.90;;;;;;5059381;28;20543;-71
2023/10/21 04:31:54;;;;;;;7.60;0.60;;;12.90;99.90;;;;;;5055574;28;20542;-69
2023/10/21 04:34:22;;;;;;;5.90;0.50;;;13.00;99.90;;;;;;5059028;28;20456;-68
2023/10/21 04:36:50;;;;;;;5.60;0.40;;;12.90;99.90;;;;;;5057419;28;20929;-68
2023/10/21 04:39:17;;;;;;;7.60;0.80;;;12.80;99.90;;;;;;5056112;28;20456;-74
2023/10/21 04:41:49;;;;;;;6.20;0.50;;;12.80;99.90;;;;;;5058033;28;20484;-70
2023/10/21 04:44:17;;;;;;;5.90;0.60;;;12.70;99.90;;;;;;5057582;28;20456;-69
2023/10/21 04:46:45;;;;;;;6.13;0.57;;;12.80;99.90;;;;;;5060368;28;20471;-70
2023/10/21 04:49:14;;;;;;;5.70;0.50;;;12.90;99.90;;;;;;5061356;28;20453;-68
2023/10/21 04:51:42;;;;;;;6.43;0.97;;;13.00;99.90;;;;;;5055921;28;20454;-68
2023/10/21 04:54:10;;;;;;;6.20;0.50;;;12.90;99.90;;;;;;5059328;28;20444;-69
2023/10/21 04:56:38;;;;;;;8.40;0.70;;;13.00;99.90;;;;;;5058522;28;20470;-68
2023/10/21 04:59:06;;;;;;;6.63;0.73;;;13.10;99.90;;;;;;5056982;28;20454;-66
2023/10/21 05:01:35;;;;;;;6.40;0.60;;;13.10;99.90;;;;;;5061356;28;20570;-67
2023/10/21 05:04:03;;;;;;;6.30;0.73;;;13.10;99.90;;;;;;5059929;28;20459;-67
2023/10/21 05:06:32;;;;;;;5.80;0.60;;;13.00;99.90;;;;;;5064365;28;20471;-67
2023/10/21 05:09:00;;;;;;;6.77;0.60;;;13.10;99.90;;;;;;5058953;28;20478;-71
2023/10/21 05:11:28;;;;;;;6.13;0.50;;;13.00;99.90;;;;;;5061403;28;20467;-67
2023/10/21 05:13:57;;;;;;;6.20;1.13;;;13.00;99.90;;;;;;5065250;28;21156;-69
2023/10/21 05:16:25;;;;;;;7.07;0.70;;;13.10;99.90;;;;;;5058192;28;20471;-67
2023/10/21 05:18:53;;;;;;;6.07;0.53;;;13.20;99.90;;;;;;5060100;28;20456;-69
2023/10/21 05:21:21;;;;;;;5.93;0.70;;;13.20;99.90;;;;;;5061076;28;20463;-69
2023/10/21 05:23:50;;;;;;;6.13;0.83;;;13.30;99.90;;;;;;5058006;28;20953;-68
2023/10/21 05:26:18;;;;;;;6.20;0.50;;;13.20;99.90;;;;;;5054177;28;20484;-70
2023/10/21 05:28:48;;;;;;;5.67;0.50;;;13.30;99.90;;;;;;5060612;28;20513;-69
2023/10/21 05:31:16;;;;;;;5.90;0.60;;;13.30;99.90;;;;;;5056957;28;20456;-70
2023/10/21 05:33:44;;;;;;;6.97;0.60;;;13.20;99.90;;;;;;5061515;28;20489;-67
2023/10/21 05:36:12;;;;;;;5.77;0.43;;;13.20;99.90;;;;;;5063719;28;20476;-70
2023/10/21 05:38:40;;;;;;;5.67;0.50;;;13.10;99.90;;;;;;5064881;28;20462;-69
2023/10/21 05:41:11;;;;;;;6.30;0.70;;;13.00;99.90;;;;;;5063415;28;20574;-70
2023/10/21 05:43:39;;;;;;;5.80;0.70;;;13.00;99.90;;;;;;5059793;28;20475;-71
2023/10/21 05:46:07;;;;;;;6.37;0.80;;;13.00;99.90;;;;;;5061160;28;20551;-71
2023/10/21 05:48:34;;;;;;;6.93;0.70;;;13.10;99.90;;;;;;5063511;28;20649;-71
2023/10/21 05:51:03;;;;;;;7.63;0.70;;;13.10;99.90;;;;;;5062421;28;20515;-69
2023/10/21 05:53:31;;;;;;;6.30;0.90;;;13.20;99.90;;;;;;5064366;28;21012;-69
2023/10/21 05:55:59;;;;;;;7.13;0.80;;;13.30;99.90;;;;;;5059112;28;20475;-72
2023/10/21 05:58:28;;;;;;;5.90;0.60;;;13.30;99.90;;;;;;5060339;28;20462;-68
2023/10/21 06:01:08;;;;;;;5.60;0.40;;;13.30;99.90;;;;;;5063142;28;20465;-69
2023/10/21 06:03:36;;;;;;;5.70;0.50;;;13.30;99.90;;;;;;5056665;28;20929;-67
2023/10/21 06:06:05;;;;;;;5.80;0.70;;;13.30;99.90;;;;;;5063096;28;20474;-67
2023/10/21 06:08:33;;;;;;;6.87;0.70;;;13.20;99.90;;;;;;5059580;28;20510;-69
2023/10/21 06:11:02;;;;;;;6.00;0.70;;;13.20;99.90;;;;;;5058518;28;20466;-70
2023/10/21 06:13:31;;;;;;;5.80;0.50;;;13.10;99.90;;;;;;5059301;28;21013;-70
2023/10/21 06:16:00;;;;;;;6.27;0.60;;;13.00;99.90;;;;;;5056355;28;20538;-68
2023/10/21 06:18:28;;;;;;;5.80;0.50;;;13.00;99.90;;;;;;5060611;28;20474;-68
2023/10/21 06:20:56;;;;;;;6.20;0.60;;;13.00;99.90;;;;;;5058104;28;20467;-67
2023/10/21 06:23:24;;;;;;;5.80;0.70;;;12.80;99.90;;;;;;5061966;28;20473;-66
2023/10/21 06:25:52;;;;;;;6.03;0.47;;;12.70;99.90;;;;;;5057980;28;20476;-70
2023/10/21 06:28:21;;;;;;;5.97;0.50;;;12.70;99.90;;;;;;5055046;28;20467;-68
2023/10/21 06:30:50;;;;;;;8.30;0.67;;;12.70;99.90;;;;;;5060612;28;20451;-67
2023/10/21 06:33:18;;;;;;;7.20;0.60;;;13.00;99.90;;;;;;5057630;28;20504;-67
2023/10/21 06:35:47;;;;;;;5.70;0.50;;;13.10;99.90;;;;;;5055585;28;20501;-68
2023/10/21 06:38:15;;;;;;;6.60;0.70;;;13.00;99.90;;;;;;5054894;28;20858;-69
2023/10/21 06:40:44;;;;;;;6.40;0.50;;;13.00;99.90;;;;;;5063183;28;20880;-66
2023/10/21 06:43:32;;;;;;;6.00;0.63;;;13.00;99.90;;;;;;5062554;28;20478;-66
2023/10/21 06:46:01;;;;;;;6.40;0.50;;;13.10;99.90;;;;;;5056226;28;20926;-68
2023/10/21 06:48:29;;;;;;;5.90;0.53;;;13.00;99.90;;;;;;5057041;28;20458;-66
2023/10/21 06:50:57;;;;;;;7.23;0.70;;;12.90;99.90;;;;;;5065331;28;20535;-68
2023/10/21 06:53:26;;;;;;;5.90;0.70;;;12.80;99.90;;;;;;5055673;28;20451;-67
2023/10/21 06:55:54;;;;;;;5.80;0.50;;;12.70;99.90;;;;;;5059686;28;20467;-68
2023/10/21 06:58:22;;;;;;;6.20;0.43;;;12.60;99.90;;;;;;5054538;28;20460;-68
2023/10/21 07:00:51;;;;;;;6.40;0.70;;;12.50;99.90;;;;;;5062760;28;20459;-67
2023/10/21 07:03:21;;;;;;;6.30;0.63;;;12.50;99.90;;;;;;5057081;28;21065;-66
2023/10/21 07:05:49;;;;;;;5.90;0.70;;;12.50;99.90;;;;;;5065469;28;20474;-66
2023/10/21 07:08:17;;;;;;;7.33;1.03;;;12.50;99.90;;;;;;5060559;28;20540;-67
2023/10/21 07:10:45;;;;;;;6.30;1.07;;;12.50;99.90;;;;;;5054830;28;20812;-65
2023/10/21 07:13:14;;;;;;;5.93;0.80;;;12.60;99.90;;;;;;5061683;28;20463;-66
2023/10/21 07:15:42;;;;;;;6.13;0.80;;;12.70;99.90;;;;;;5059037;28;20470;-66
2023/10/21 07:18:10;;;;;;;7.93;1.13;;;12.80;99.90;;;;;;5058920;28;20991;-66
2023/10/21 07:20:39;;;;;;;6.67;0.90;;;13.00;99.90;;;;;;5060946;28;20455;-66
2023/10/21 07:23:09;;;;;;;8.50;1.10;;;13.20;99.90;;;;;;5060868;28;20486;-67
2023/10/21 07:25:39;;;;;;;6.57;1.00;;;13.40;99.90;;;;;;5060130;28;21422;-68
2023/10/21 07:28:06;;;;;;;6.07;0.80;;;13.60;99.90;;;;;;5061896;28;20456;-66
2023/10/21 07:30:34;;;;;;;6.40;2.50;;;13.70;99.90;;;;;;5062783;28;20465;-66
2023/10/21 07:33:02;;;;;;;5.80;0.53;;;13.80;99.90;;;;;;5053748;28;20831;-66
2023/10/21 07:35:31;;;;;;;6.50;0.87;;;13.90;99.90;;;;;;5062616;28;20483;-67
2023/10/21 07:38:00;;;;;;;6.07;0.70;;;14.00;99.90;;;;;;5059407;28;20450;-68
2023/10/21 07:40:29;;;;;;;5.70;0.53;;;14.00;99.90;;;;;;5059229;28;20447;-67
2023/10/21 07:42:58;;;;;;;5.80;0.50;;;14.10;99.90;;;;;;5060912;28;20572;-66
2023/10/21 07:45:26;;;;;;;6.50;0.67;;;14.30;99.90;;;;;;5055875;28;20919;-68
2023/10/21 07:47:54;;;;;;;6.03;0.70;;;14.50;99.90;;;;;;5060943;28;20461;-66
2023/10/21 07:50:23;;;;;;;6.27;0.60;;;14.70;99.90;;;;;;5056487;28;20458;-65
2023/10/21 07:52:51;;;;;;;6.87;1.00;;;15.00;99.90;;;;;;5058857;28;20856;-67
2023/10/21 07:55:20;;;;;;;6.47;0.70;;;15.50;99.90;;;;;;5062409;28;20473;-68
2023/10/21 07:57:48;;;;;;;6.03;0.73;;;15.90;99.90;;;;;;5058346;28;20537;-68
2023/10/21 08:00:16;;;;;;;6.27;0.80;;;16.20;99.90;;;;;;5052810;28;20983;-68
2023/10/21 08:02:44;;;;;;;6.20;0.70;;;16.40;99.90;;;;;;5056211;28;20902;-68
2023/10/21 08:05:13;;;;;;;6.83;0.80;;;16.50;99.90;;;;;;5055142;28;20490;-69
2023/10/21 08:07:40;;;;;;;6.17;0.80;;;16.40;99.90;;;;;;5056197;28;20493;-68
2023/10/21 08:10:09;;;;;;;6.00;0.60;;;16.20;99.90;;;;;;5054396;28;20456;-67
2023/10/21 08:12:39;;;;;;;6.20;0.60;;;16.20;99.90;;;;;;5055281;28;20478;-67
2023/10/21 08:15:08;;;;;;;6.10;0.67;;;16.20;99.90;;;;;;5054795;28;20529;-67
2023/10/21 08:17:36;;;;;;;6.57;1.70;;;16.20;99.90;;;;;;5061147;28;20505;-68
2023/10/21 08:20:05;;;;;;;7.80;0.90;;;16.30;99.90;;;;;;5053562;28;20459;-66
2023/10/21 08:22:34;;;;;;;6.00;0.50;;;16.40;99.90;;;;;;5064758;28;20456;-66
2023/10/21 08:25:02;;;;;;;5.70;0.47;;;16.50;99.90;;;;;;5058763;28;20483;-66
2023/10/21 08:27:30;;;;;;;6.37;0.47;;;16.50;99.90;;;;;;5061073;28;20535;-65
2023/10/21 08:30:01;;;;;;;6.13;0.40;;;16.50;99.90;;;;;;5056240;28;20453;-67
2023/10/21 08:32:29;;;;;;;5.83;0.50;;;16.60;99.90;;;;;;5063016;28;20451;-67
2023/10/21 08:34:57;;;;;;;5.70;0.50;;;16.60;99.90;;;;;;5060808;28;20848;-67
2023/10/21 08:37:25;;;;;;;6.73;0.50;;;16.70;99.90;;;;;;5062327;28;20964;-69
2023/10/21 08:39:53;;;;;;;5.70;0.50;;;16.70;99.90;;;;;;5061967;28;20495;-66
2023/10/21 08:42:25;;;;;;;5.97;0.57;;;16.80;99.90;;;;;;5063008;28;20548;-67
2023/10/21 08:45:18;;;;;;;7.70;0.50;;;16.90;99.90;;;;;;5064817;28;20483;-68
2023/10/21 08:47:46;;;;;;;10.80;0.60;;;16.90;99.90;;;;;;5062294;28;20820;-67
2023/10/21 08:50:16;;;;;;;5.80;0.50;;;16.80;99.90;;;;;;5060510;28;20443;-66
2023/10/21 08:52:46;;;;;;;6.23;0.50;;;16.80;99.90;;;;;;5064645;28;20536;-68
2023/10/21 08:55:14;;;;;;;5.70;0.57;;;16.90;99.90;;;;;;5063080;28;20466;-67
2023/10/21 08:57:42;;;;;;;5.43;0.30;;;17.00;99.90;;;;;;5061568;28;20486;-67
2023/10/21 09:00:11;;;;;;;5.77;0.50;;;17.30;99.90;;;;;;5060940;28;20471;-66
2023/10/21 09:02:40;;;;;;;6.30;0.60;;;17.50;99.90;;;;;;5062763;28;20448;-67
2023/10/21 09:05:12;;;;;;;8.83;0.40;;;17.50;99.90;;;;;;5061941;28;20483;-68
2023/10/21 09:07:47;;;;;;;7.33;0.70;;;17.60;99.90;;;;;;5064356;28;20459;-68
2023/10/21 09:10:16;;;;;;;6.40;0.50;;;17.70;99.90;;;;;;5064088;28;20466;-67
2023/10/21 09:12:45;;;;;;;5.77;0.50;;;17.70;99.90;;;;;;5060675;28;20462;-67
2023/10/21 09:15:13;;;;;;;6.60;1.13;;;17.50;99.90;;;;;;5063300;28;20475;-66
2023/10/21 09:17:45;;;;;;;6.77;0.50;;;17.20;99.90;;;;;;5061429;28;20541;-67
2023/10/21 09:20:15;;;;;;;7.73;0.50;;;17.20;99.90;;;;;;5058885;28;20448;-68
2023/10/21 09:22:45;;;;;;;5.90;0.50;;;17.40;99.90;;;;;;5065281;28;20513;-67
2023/10/21 09:25:15;;;;;;;6.40;0.60;;;17.60;99.90;;;;;;5066774;28;20974;-67
2023/10/21 09:27:44;;;;;;;7.07;0.73;;;17.60;99.90;;;;;;5068557;28;20979;-67
2023/10/21 09:30:16;;;;;;;6.17;0.47;;;17.70;99.90;;;;;;5063314;28;20455;-68
2023/10/21 09:32:46;;;;;;;6.40;0.67;;;17.80;99.90;;;;;;5061869;28;20530;-68
2023/10/21 09:35:21;;;;;;;5.93;0.60;;;18.00;99.90;;;;;;5063968;28;20475;-68
2023/10/21 09:37:49;;;;;;;7.47;0.50;;;18.30;99.90;;;;;;5067015;28;20484;-69
2023/10/21 09:40:18;;;;;;;6.20;0.50;;;18.10;99.90;;;;;;5063369;28;20447;-68
2023/10/21 09:42:49;;;;;;;5.90;0.60;;;18.20;99.90;;;;;;5066794;28;20478;-67
2023/10/21 09:45:18;;;;;;;6.20;0.70;;;18.50;99.90;;;;;;5065881;28;20484;-67
2023/10/21 09:47:47;;;;;;;5.80;0.50;;;18.70;99.90;;;;;;5055920;28;20452;-68
2023/10/21 09:50:16;;;;;;;6.70;0.70;;;19.00;99.90;;;;;;5060549;28;20448;-68
2023/10/21 09:52:49;;;;;;;5.90;0.60;;;18.80;99.90;;;;;;5064553;28;20452;-67
2023/10/21 09:55:24;;;;;;;5.70;0.60;;;18.60;99.90;;;;;;5065662;28;21060;-67
2023/10/21 09:57:54;;;;;;;6.57;0.60;;;18.60;99.90;;;;;;5061982;28;20454;-69
2023/10/21 10:00:24;;;;;;;5.70;0.50;;;18.90;99.90;;;;;;5066335;28;20538;-66
2023/10/21 10:02:59;;;;;;;5.90;0.40;;;19.10;99.90;;;;;;5061662;28;20534;-68
2023/10/21 10:05:28;;;;;;;6.73;0.57;;;19.30;99.90;;;;;;5067012;28;21008;-67
2023/10/21 10:08:00;;;;;;;6.40;0.70;;;19.50;99.90;;;;;;5058961;28;20505;-67
2023/10/21 10:10:28;;;;;;;7.47;0.90;;;19.70;99.90;;;;;;5058590;28;21074;-69
2023/10/21 10:13:02;;;;;;;5.60;0.40;;;19.70;99.90;;;;;;5052717;28;20456;-69
2023/10/21 10:15:35;;;;;;;6.00;0.67;;;19.60;99.90;;;;;;5057007;28;20467;-70
2023/10/21 10:18:07;;;;;;;6.73;0.63;;;19.80;99.90;;;;;;5054907;28;20456;-68
2023/10/21 10:20:44;;;;;;;6.30;0.57;;;20.20;99.90;;;;;;5064351;28;20451;-69
2023/10/21 10:23:13;;;;;;;5.90;0.50;;;20.90;99.90;;;;;;5059124;28;20465;-68
2023/10/21 10:25:44;;;;;;;6.77;0.90;;;21.80;99.90;;;;;;5060685;28;20587;-67
2023/10/21 10:28:17;;;;;;;7.20;0.80;;;22.00;98.60;;;;;;5062081;28;21250;-69
2023/10/21 10:30:46;;;;;;;6.17;0.50;;;21.30;98.20;;;;;;5057515;28;20853;-69
2023/10/21 10:33:18;;;;;;;7.03;1.33;;;21.20;98.10;;;;;;5063720;28;20873;-70
2023/10/21 10:35:49;;;;;;;5.60;0.43;;;21.60;96.60;;;;;;5058520;28;20566;-70
2023/10/21 10:38:20;;;;;;;6.80;0.60;;;21.30;95.70;;;;;;5058732;28;20563;-70
2023/10/21 10:40:49;;;;;;;5.90;0.43;;;21.00;95.60;;;;;;5055867;28;20447;-68
2023/10/21 10:43:19;;;;;;;6.00;0.70;;;20.50;95.20;;;;;;5059886;28;20889;-71
2023/10/21 10:45:47;;;;;;;6.13;0.77;;;20.20;97.60;;;;;;5065122;28;20490;-70
2023/10/21 10:48:18;;;;;;;6.53;0.70;;;20.30;97.20;;;;;;5062281;28;20508;-68
2023/10/21 10:50:47;;;;;;;5.60;0.50;;;20.00;97.20;;;;;;5059194;28;20890;-71
2023/10/21 10:53:16;;;;;;;5.80;0.50;;;19.70;97.40;;;;;;5056141;28;20448;-72
2023/10/21 10:55:47;;;;;;;5.57;0.50;;;19.50;97.20;;;;;;5056761;28;20464;-69
2023/10/21 10:58:18;;;;;;;6.50;0.90;;;19.20;97.40;;;;;;5059384;28;20477;-69
2023/10/21 11:00:46;;;;;;;7.27;0.50;;;18.90;97.70;;;;;;5062730;28;20463;-69
2023/10/21 11:03:24;;;;;;;6.23;0.60;;;18.80;96.90;;;;;;5060582;28;20535;-69
2023/10/21 11:05:55;;;;;;;5.77;0.60;;;18.70;97.80;;;;;;5063922;28;20490;-71
2023/10/21 11:08:23;;;;;;;6.07;0.77;;;18.70;97.90;;;;;;5056565;28;20462;-70
2023/10/21 11:10:53;;;;;;;7.03;1.00;;;18.90;99.00;;;;;;5056172;28;20487;-73
2023/10/21 11:13:21;;;;;;;7.40;0.60;;;19.10;99.30;;;;;;5059509;28;20949;-69
2023/10/21 11:15:54;;;;;;;6.30;0.70;;;19.30;97.20;;;;;;5060201;28;20474;-71
2023/10/21 11:18:23;;;;;;;7.50;1.00;;;19.40;97.30;;;;;;5062164;28;20448;-71
2023/10/21 11:20:52;;;;;;;6.83;0.70;;;19.50;95.80;;;;;;5058794;28;20528;-69
2023/10/21 11:23:23;;;;;;;6.30;1.00;;;19.60;95.60;;;;;;5063440;28;20451;-68
2023/10/21 11:25:56;;;;;;;7.30;0.80;;;19.90;96.10;;;;;;5073166;28;20860;-69
2023/10/21 11:28:25;;;;;;;6.10;0.93;;;20.30;97.40;;;;;;5059889;28;20513;-70
2023/10/21 11:30:54;;;;;;;6.00;0.70;;;20.90;95.10;;;;;;5064198;28;20451;-70
2023/10/21 11:33:23;;;;;;;7.77;1.33;;;21.60;94.10;;;;;;5058446;28;20529;-70
2023/10/21 11:35:52;;;;;;;6.13;0.63;;;21.60;92.20;;;;;;5060947;28;20470;-69
2023/10/21 11:38:21;;;;;;;7.07;1.27;;;20.40;92.50;;;;;;5058521;28;20496;-71
2023/10/21 11:40:49;;;;;;;7.13;0.97;;;20.00;94.10;;;;;;5057511;28;20464;-69
2023/10/21 11:43:19;;;;;;;6.10;0.60;;;19.80;94.80;;;;;;5060223;28;20462;-68
2023/10/21 11:45:49;;;;;;;6.00;0.80;;;19.70;93.30;;;;;;5060160;28;20570;-68
2023/10/21 11:48:18;;;;;;;7.53;0.70;;;19.60;93.60;;;;;;5056751;28;20451;-69
2023/10/21 11:50:47;;;;;;;6.70;0.60;;;19.30;93.50;;;;;;5062372;28;20451;-67
2023/10/21 11:53:15;;;;;;;5.93;0.60;;;19.20;93.90;;;;;;5057908;28;20471;-66
2023/10/21 11:56:56;;;;;;;6.10;1.00;;;19.10;94.90;;;;;;5061840;28;20980;-68
2023/10/21 12:13:38;;;;;;;8.00;2.40;;;19.40;94.40;;;;;;5062420;28;20456;-68
2023/10/21 12:19:25;;;;;;;5.90;0.60;;;19.50;92.20;;;;;;5038775;28;20446;-68
2023/10/21 12:25:13;;;;;;;5.70;0.60;;;19.50;93.10;;;;;;5065217;28;20465;-68
2023/10/21 12:33:21;;;;;;;7.17;0.60;;;19.10;92.10;;;;;;5029863;28;20448;-68
2023/10/21 12:36:10;;;;;;;5.93;0.77;;;19.00;92.80;;;;;;5063935;28;20474;-67
2023/10/21 12:38:40;;;;;;;6.07;0.57;;;19.00;92.90;;;;;;5071093;28;20470;-68
2023/10/21 12:41:25;;;;;;;5.67;0.50;;;19.00;92.50;;;;;;5057950;28;20452;-68
2023/10/21 12:43:55;;;;;;;6.50;0.70;;;18.80;92.90;;;;;;5057822;28;20480;-69
2023/10/21 12:46:25;;;;;;;5.63;0.50;;;18.60;92.60;;;;;;5067376;28;20854;-69
2023/10/21 12:48:53;;;;;;;6.07;0.70;;;18.50;93.40;;;;;;5063889;28;20911;-68
2023/10/21 12:51:29;;;;;;;6.00;0.57;;;18.40;92.50;;;;;;5064291;28;20847;-67
2023/10/21 12:53:57;;;;;;;7.10;0.60;;;18.20;93.30;;;;;;5067113;28;20499;-67
2023/10/21 12:56:42;;;;;;;7.07;0.77;;;18.20;94.00;;;;;;5059510;28;20479;-68
2023/10/21 12:59:10;;;;;;;6.50;0.60;;;18.20;94.10;;;;;;5059577;28;20443;-68
2023/10/21 13:01:38;;;;;;;6.00;0.70;;;18.30;93.50;;;;;;5057274;28;20459;-67
2023/10/21 13:04:07;;;;;;;5.80;0.50;;;18.20;92.90;;;;;;5064134;28;20538;-68
2023/10/21 13:06:35;;;;;;;9.60;1.13;;;18.40;93.20;;;;;;5062152;28;20548;-68
2023/10/21 13:09:20;;;;;;;6.00;0.47;;;18.30;92.20;;;;;;5067276;28;20969;-68
2023/10/21 13:11:51;;;;;;;6.60;0.60;;;18.20;92.40;;;;;;5059308;28;20450;-67
2023/10/21 13:14:20;;;;;;;5.70;0.57;;;18.20;94.70;;;;;;5060255;28;20480;-68
2023/10/21 13:16:49;;;;;;;7.23;1.13;;;18.30;92.70;;;;;;5066372;28;20485;-69
2023/10/21 13:19:17;;;;;;;10.70;0.90;;;18.40;93.20;;;;;;5064948;28;21095;-68
2023/10/21 13:21:45;;;;;;;6.07;0.50;;;18.40;92.90;;;;;;5059953;28;20805;-67
2023/10/21 13:24:13;;;;;;;12.33;3.10;;;18.50;93.10;;;;;;5070364;28;20917;-68